sensor_id;sensor_type;location;lat;lon;timestamp;P1;durP1;ratioP1;P2;durP2;ratioP2
1346;SDS011;667;48.796;9.480;2022-09-16T00:00:35;6.40;;;5.80;;
1346;SDS011;667;48.796;9.480;2022-09-16T00:03:01;8.83;;;5.57;;
1346;SDS011;667;48.796;9.480;2022-09-16T00:05:27;6.23;;;5.63;;
1346;SDS011;667;48.796;9.480;2022-09-16T00:07:53;5.93;;;5.43;;
1346;SDS011;667;48.796;9.480;2022-09-16T00:10:19;5.77;;;5.30;;
1346;SDS011;667;48.796;9.480;2022-09-16T00:12:46;7.77;;;6.47;;
1346;SDS011;667;48.796;9.480;2022-09-16T00:15:12;6.57;;;6.00;;
1346;SDS011;667;48.796;9.480;2022-09-16T00:17:38;6.83;;;6.23;;
1346;SDS011;667;48.796;9.480;2022-09-16T00:20:04;7.20;;;6.60;;
1346;SDS011;667;48.796;9.480;2022-09-16T00:22:30;7.53;;;6.83;;
1346;SDS011;667;48.796;9.480;2022-09-16T00:24:56;7.53;;;6.93;;
1346;SDS011;667;48.796;9.480;2022-09-16T00:27:21;7.20;;;6.53;;
1346;SDS011;667;48.796;9.480;2022-09-16T00:29:47;7.40;;;6.70;;
1346;SDS011;667;48.796;9.480;2022-09-16T00:32:12;7.00;;;6.23;;
1346;SDS011;667;48.796;9.480;2022-09-16T00:34:38;7.57;;;6.70;;
1346;SDS011;667;48.796;9.480;2022-09-16T00:37:04;7.20;;;6.60;;
1346;SDS011;667;48.796;9.480;2022-09-16T00:39:32;7.60;;;6.53;;
1346;SDS011;667;48.796;9.480;2022-09-16T00:41:59;8.00;;;7.30;;
1346;SDS011;667;48.796;9.480;2022-09-16T00:50:05;7.67;;;7.00;;
1346;SDS011;667;48.796;9.480;2022-09-16T00:52:32;9.33;;;6.57;;
1346;SDS011;667;48.796;9.480;2022-09-16T00:54:59;8.83;;;6.53;;
1346;SDS011;667;48.796;9.480;2022-09-16T00:57:30;7.30;;;6.70;;
1346;SDS011;667;48.796;9.480;2022-09-16T00:59:56;8.20;;;6.03;;
1346;SDS011;667;48.796;9.480;2022-09-16T01:02:21;6.50;;;5.90;;
1346;SDS011;667;48.796;9.480;2022-09-16T01:04:59;5.73;;;5.30;;
1346;SDS011;667;48.796;9.480;2022-09-16T01:07:38;10.00;;;6.47;;
1346;SDS011;667;48.796;9.480;2022-09-16T01:10:05;6.43;;;5.80;;
1346;SDS011;667;48.796;9.480;2022-09-16T01:12:31;9.33;;;6.30;;
1346;SDS011;667;48.796;9.480;2022-09-16T01:14:58;6.40;;;5.80;;
1346;SDS011;667;48.796;9.480;2022-09-16T01:17:39;7.17;;;5.30;;
1346;SDS011;667;48.796;9.480;2022-09-16T01:35:45;6.20;;;5.70;;
1346;SDS011;667;48.796;9.480;2022-09-16T01:41:05;7.27;;;5.93;;
1346;SDS011;667;48.796;9.480;2022-09-16T01:43:44;6.33;;;5.63;;
1346;SDS011;667;48.796;9.480;2022-09-16T01:49:27;5.97;;;5.47;;
1346;SDS011;667;48.796;9.480;2022-09-16T01:55:09;5.60;;;5.17;;
1346;SDS011;667;48.796;9.480;2022-09-16T02:00:19;6.70;;;5.60;;
1346;SDS011;667;48.796;9.480;2022-09-16T02:05:33;7.27;;;5.40;;
1346;SDS011;667;48.796;9.480;2022-09-16T02:08:16;4.97;;;4.57;;
1346;SDS011;667;48.796;9.480;2022-09-16T02:10:51;5.60;;;5.10;;
1346;SDS011;667;48.796;9.480;2022-09-16T02:13:22;6.70;;;4.87;;
1346;SDS011;667;48.796;9.480;2022-09-16T02:16:07;7.93;;;5.30;;
1346;SDS011;667;48.796;9.480;2022-09-16T02:18:38;5.87;;;5.20;;
1346;SDS011;667;48.796;9.480;2022-09-16T02:21:06;6.17;;;5.10;;
1346;SDS011;667;48.796;9.480;2022-09-16T02:23:39;5.50;;;5.00;;
1346;SDS011;667;48.796;9.480;2022-09-16T02:26:10;6.27;;;5.70;;
1346;SDS011;667;48.796;9.480;2022-09-16T02:28:40;6.17;;;5.67;;
1346;SDS011;667;48.796;9.480;2022-09-16T02:31:09;6.60;;;5.97;;
1346;SDS011;667;48.796;9.480;2022-09-16T02:33:37;6.50;;;5.37;;
1346;SDS011;667;48.796;9.480;2022-09-16T02:36:17;5.67;;;5.13;;
1346;SDS011;667;48.796;9.480;2022-09-16T02:38:47;5.87;;;5.37;;
1346;SDS011;667;48.796;9.480;2022-09-16T02:41:19;6.20;;;5.70;;
1346;SDS011;667;48.796;9.480;2022-09-16T02:43:46;7.30;;;5.40;;
1346;SDS011;667;48.796;9.480;2022-09-16T02:46:48;8.40;;;5.53;;
1346;SDS011;667;48.796;9.480;2022-09-16T02:51:48;7.00;;;5.50;;
1346;SDS011;667;48.796;9.480;2022-09-16T02:57:10;6.70;;;5.37;;
1346;SDS011;667;48.796;9.480;2022-09-16T02:59:36;6.00;;;5.50;;
1346;SDS011;667;48.796;9.480;2022-09-16T03:02:03;5.47;;;4.97;;
1346;SDS011;667;48.796;9.480;2022-09-16T03:04:29;6.60;;;5.40;;
1346;SDS011;667;48.796;9.480;2022-09-16T03:06:55;5.53;;;4.67;;
1346;SDS011;667;48.796;9.480;2022-09-16T03:09:21;7.10;;;5.60;;
1346;SDS011;667;48.796;9.480;2022-09-16T03:25:56;5.80;;;5.30;;
1346;SDS011;667;48.796;9.480;2022-09-16T03:31:29;6.57;;;5.17;;
1346;SDS011;667;48.796;9.480;2022-09-16T03:33:58;6.90;;;5.63;;
1346;SDS011;667;48.796;9.480;2022-09-16T03:36:28;14.00;;;8.00;;
1346;SDS011;667;48.796;9.480;2022-09-16T03:38:58;5.30;;;4.90;;
1346;SDS011;667;48.796;9.480;2022-09-16T03:41:27;6.30;;;5.80;;
1346;SDS011;667;48.796;9.480;2022-09-16T03:43:54;6.00;;;5.50;;
1346;SDS011;667;48.796;9.480;2022-09-16T03:46:21;6.03;;;5.43;;
1346;SDS011;667;48.796;9.480;2022-09-16T03:48:47;6.93;;;5.57;;
1346;SDS011;667;48.796;9.480;2022-09-16T03:51:13;6.53;;;5.50;;
1346;SDS011;667;48.796;9.480;2022-09-16T03:53:39;5.53;;;5.13;;
1346;SDS011;667;48.796;9.480;2022-09-16T03:56:05;5.70;;;5.23;;
1346;SDS011;667;48.796;9.480;2022-09-16T03:58:30;5.53;;;5.13;;
1346;SDS011;667;48.796;9.480;2022-09-16T04:00:56;5.17;;;4.77;;
1346;SDS011;667;48.796;9.480;2022-09-16T04:03:21;5.60;;;5.10;;
1346;SDS011;667;48.796;9.480;2022-09-16T04:05:53;8.27;;;6.10;;
1346;SDS011;667;48.796;9.480;2022-09-16T04:08:19;5.60;;;4.63;;
1346;SDS011;667;48.796;9.480;2022-09-16T04:13:20;6.47;;;5.87;;
1346;SDS011;667;48.796;9.480;2022-09-16T04:15:46;7.80;;;5.90;;
1346;SDS011;667;48.796;9.480;2022-09-16T04:18:11;6.90;;;6.27;;
1346;SDS011;667;48.796;9.480;2022-09-16T04:20:37;6.17;;;5.67;;
1346;SDS011;667;48.796;9.480;2022-09-16T04:23:03;8.83;;;6.57;;
1346;SDS011;667;48.796;9.480;2022-09-16T04:25:29;12.90;;;5.37;;
1346;SDS011;667;48.796;9.480;2022-09-16T04:27:54;6.33;;;5.73;;
1346;SDS011;667;48.796;9.480;2022-09-16T04:30:21;5.73;;;5.30;;
1346;SDS011;667;48.796;9.480;2022-09-16T04:32:46;5.60;;;5.10;;
1346;SDS011;667;48.796;9.480;2022-09-16T04:35:16;5.20;;;4.70;;
1346;SDS011;667;48.796;9.480;2022-09-16T04:37:43;6.57;;;4.80;;
1346;SDS011;667;48.796;9.480;2022-09-16T04:40:09;6.77;;;6.07;;
1346;SDS011;667;48.796;9.480;2022-09-16T04:42:34;5.67;;;5.20;;
1346;SDS011;667;48.796;9.480;2022-09-16T04:45:00;6.40;;;5.80;;
1346;SDS011;667;48.796;9.480;2022-09-16T04:47:26;6.53;;;5.63;;
1346;SDS011;667;48.796;9.480;2022-09-16T04:49:51;6.43;;;5.70;;
1346;SDS011;667;48.796;9.480;2022-09-16T04:52:17;6.23;;;5.63;;
1346;SDS011;667;48.796;9.480;2022-09-16T04:54:42;5.40;;;5.00;;
1346;SDS011;667;48.796;9.480;2022-09-16T04:57:08;6.80;;;5.57;;
1346;SDS011;667;48.796;9.480;2022-09-16T04:59:34;6.10;;;5.60;;
1346;SDS011;667;48.796;9.480;2022-09-16T05:01:59;5.83;;;5.23;;
1346;SDS011;667;48.796;9.480;2022-09-16T05:04:25;6.90;;;5.83;;
1346;SDS011;667;48.796;9.480;2022-09-16T05:06:50;5.97;;;5.43;;
1346;SDS011;667;48.796;9.480;2022-09-16T05:09:16;6.17;;;5.67;;
1346;SDS011;667;48.796;9.480;2022-09-16T05:11:42;5.87;;;5.20;;
1346;SDS011;667;48.796;9.480;2022-09-16T05:14:09;6.90;;;6.30;;
1346;SDS011;667;48.796;9.480;2022-09-16T05:16:41;7.80;;;6.77;;
1346;SDS011;667;48.796;9.480;2022-09-16T05:19:09;7.83;;;7.13;;
1346;SDS011;667;48.796;9.480;2022-09-16T05:21:35;8.30;;;7.40;;
1346;SDS011;667;48.796;9.480;2022-09-16T05:24:03;8.20;;;7.43;;
1346;SDS011;667;48.796;9.480;2022-09-16T05:26:32;8.50;;;7.80;;
1346;SDS011;667;48.796;9.480;2022-09-16T05:29:00;7.73;;;6.90;;
1346;SDS011;667;48.796;9.480;2022-09-16T05:31:29;8.50;;;7.70;;
1346;SDS011;667;48.796;9.480;2022-09-16T05:34:00;8.00;;;7.20;;
1346;SDS011;667;48.796;9.480;2022-09-16T05:36:29;8.13;;;7.43;;
1346;SDS011;667;48.796;9.480;2022-09-16T05:38:56;7.90;;;6.63;;
1346;SDS011;667;48.796;9.480;2022-09-16T05:41:22;12.13;;;6.60;;
1346;SDS011;667;48.796;9.480;2022-09-16T05:43:48;8.20;;;7.50;;
1346;SDS011;667;48.796;9.480;2022-09-16T05:46:18;8.13;;;7.20;;
1346;SDS011;667;48.796;9.480;2022-09-16T05:48:46;7.20;;;6.50;;
1346;SDS011;667;48.796;9.480;2022-09-16T05:51:16;7.60;;;6.60;;
1346;SDS011;667;48.796;9.480;2022-09-16T05:53:43;7.40;;;5.97;;
1346;SDS011;667;48.796;9.480;2022-09-16T05:56:17;6.57;;;5.97;;
1346;SDS011;667;48.796;9.480;2022-09-16T05:58:44;6.70;;;6.10;;
1346;SDS011;667;48.796;9.480;2022-09-16T06:01:13;6.17;;;5.57;;
1346;SDS011;667;48.796;9.480;2022-09-16T06:03:44;6.63;;;5.47;;
1346;SDS011;667;48.796;9.480;2022-09-16T06:06:26;6.20;;;5.70;;
1346;SDS011;667;48.796;9.480;2022-09-16T06:08:57;5.70;;;5.20;;
1346;SDS011;667;48.796;9.480;2022-09-16T06:11:25;6.23;;;5.57;;
1346;SDS011;667;48.796;9.480;2022-09-16T06:13:52;7.70;;;5.63;;
1346;SDS011;667;48.796;9.480;2022-09-16T06:16:22;6.00;;;5.40;;
1346;SDS011;667;48.796;9.480;2022-09-16T06:18:52;5.50;;;5.00;;
1346;SDS011;667;48.796;9.480;2022-09-16T06:21:19;7.57;;;5.80;;
1346;SDS011;667;48.796;9.480;2022-09-16T06:23:45;6.77;;;6.07;;
1346;SDS011;667;48.796;9.480;2022-09-16T06:26:12;6.03;;;5.53;;
1346;SDS011;667;48.796;9.480;2022-09-16T06:28:39;5.03;;;4.63;;
1346;SDS011;667;48.796;9.480;2022-09-16T06:31:06;6.70;;;6.10;;
1346;SDS011;667;48.796;9.480;2022-09-16T06:33:34;7.43;;;5.73;;
1346;SDS011;667;48.796;9.480;2022-09-16T06:36:07;6.17;;;5.50;;
1346;SDS011;667;48.796;9.480;2022-09-16T06:38:33;6.03;;;5.43;;
1346;SDS011;667;48.796;9.480;2022-09-16T06:40:59;6.30;;;5.70;;
1346;SDS011;667;48.796;9.480;2022-09-16T06:43:27;8.73;;;5.70;;
1346;SDS011;667;48.796;9.480;2022-09-16T06:46:12;7.50;;;4.70;;
1346;SDS011;667;48.796;9.480;2022-09-16T06:48:43;6.13;;;5.63;;
1346;SDS011;667;48.796;9.480;2022-09-16T06:51:11;8.50;;;5.53;;
1346;SDS011;667;48.796;9.480;2022-09-16T06:53:39;6.40;;;4.90;;
1346;SDS011;667;48.796;9.480;2022-09-16T06:56:06;5.80;;;5.30;;
1346;SDS011;667;48.796;9.480;2022-09-16T06:58:35;6.00;;;5.50;;
1346;SDS011;667;48.796;9.480;2022-09-16T07:01:05;5.73;;;5.23;;
1346;SDS011;667;48.796;9.480;2022-09-16T07:03:39;6.27;;;5.10;;
1346;SDS011;667;48.796;9.480;2022-09-16T07:06:06;6.17;;;5.20;;
1346;SDS011;667;48.796;9.480;2022-09-16T07:08:33;6.17;;;4.90;;
1346;SDS011;667;48.796;9.480;2022-09-16T07:13:30;5.23;;;4.73;;
1346;SDS011;667;48.796;9.480;2022-09-16T07:16:00;5.67;;;5.10;;
1346;SDS011;667;48.796;9.480;2022-09-16T07:18:27;5.90;;;5.17;;
1346;SDS011;667;48.796;9.480;2022-09-16T07:21:07;6.20;;;5.60;;
1346;SDS011;667;48.796;9.480;2022-09-16T07:23:35;5.70;;;5.20;;
1346;SDS011;667;48.796;9.480;2022-09-16T07:26:15;7.30;;;5.27;;
1346;SDS011;667;48.796;9.480;2022-09-16T07:28:42;6.03;;;5.53;;
1346;SDS011;667;48.796;9.480;2022-09-16T07:31:13;5.80;;;5.10;;
1346;SDS011;667;48.796;9.480;2022-09-16T07:33:41;4.50;;;4.10;;
1346;SDS011;667;48.796;9.480;2022-09-16T07:36:11;4.90;;;4.40;;
1346;SDS011;667;48.796;9.480;2022-09-16T07:38:38;4.70;;;4.07;;
1346;SDS011;667;48.796;9.480;2022-09-16T07:41:08;5.17;;;4.30;;
1346;SDS011;667;48.796;9.480;2022-09-16T07:43:37;6.90;;;4.60;;
1346;SDS011;667;48.796;9.480;2022-09-16T07:46:04;5.10;;;4.10;;
1346;SDS011;667;48.796;9.480;2022-09-16T07:48:30;5.73;;;4.30;;
1346;SDS011;667;48.796;9.480;2022-09-16T07:51:00;4.10;;;3.70;;
1346;SDS011;667;48.796;9.480;2022-09-16T07:53:28;6.30;;;4.10;;
1346;SDS011;667;48.796;9.480;2022-09-16T07:55:55;4.27;;;3.97;;
1346;SDS011;667;48.796;9.480;2022-09-16T07:58:22;4.17;;;3.77;;
1346;SDS011;667;48.796;9.480;2022-09-16T08:00:47;4.80;;;4.27;;
1346;SDS011;667;48.796;9.480;2022-09-16T08:03:14;4.20;;;3.80;;
1346;SDS011;667;48.796;9.480;2022-09-16T08:05:40;5.60;;;4.20;;
1346;SDS011;667;48.796;9.480;2022-09-16T08:08:06;4.57;;;4.07;;
1346;SDS011;667;48.796;9.480;2022-09-16T08:10:31;6.40;;;4.10;;
1346;SDS011;667;48.796;9.480;2022-09-16T08:12:57;5.77;;;4.43;;
1346;SDS011;667;48.796;9.480;2022-09-16T08:15:23;4.67;;;4.27;;
1346;SDS011;667;48.796;9.480;2022-09-16T08:17:48;4.20;;;3.80;;
1346;SDS011;667;48.796;9.480;2022-09-16T08:20:14;3.87;;;3.57;;
1346;SDS011;667;48.796;9.480;2022-09-16T08:22:39;3.87;;;3.50;;
1346;SDS011;667;48.796;9.480;2022-09-16T08:25:05;5.03;;;4.10;;
1346;SDS011;667;48.796;9.480;2022-09-16T08:27:34;4.10;;;3.80;;
1346;SDS011;667;48.796;9.480;2022-09-16T08:30:00;5.23;;;3.90;;
1346;SDS011;667;48.796;9.480;2022-09-16T08:32:26;4.27;;;3.60;;
1346;SDS011;667;48.796;9.480;2022-09-16T08:34:52;4.93;;;3.87;;
1346;SDS011;667;48.796;9.480;2022-09-16T08:37:18;4.30;;;3.90;;
1346;SDS011;667;48.796;9.480;2022-09-16T08:39:43;4.40;;;4.00;;
1346;SDS011;667;48.796;9.480;2022-09-16T08:50:41;4.30;;;3.30;;
1346;SDS011;667;48.796;9.480;2022-09-16T08:53:16;3.60;;;3.30;;
1346;SDS011;667;48.796;9.480;2022-09-16T08:55:50;3.83;;;3.53;;
1346;SDS011;667;48.796;9.480;2022-09-16T08:58:22;3.70;;;3.40;;
1346;SDS011;667;48.796;9.480;2022-09-16T09:00:52;3.33;;;3.10;;
1346;SDS011;667;48.796;9.480;2022-09-16T09:03:27;5.97;;;4.20;;
1346;SDS011;667;48.796;9.480;2022-09-16T09:05:58;5.00;;;4.60;;
1346;SDS011;667;48.796;9.480;2022-09-16T09:08:38;5.70;;;3.47;;
1346;SDS011;667;48.796;9.480;2022-09-16T09:11:27;4.33;;;3.83;;
1346;SDS011;667;48.796;9.480;2022-09-16T09:33:51;6.80;;;4.00;;
1346;SDS011;667;48.796;9.480;2022-09-16T09:42:16;4.57;;;3.90;;
1346;SDS011;667;48.796;9.480;2022-09-16T09:47:20;4.10;;;3.70;;
1346;SDS011;667;48.796;9.480;2022-09-16T09:49:49;5.20;;;4.50;;
1346;SDS011;667;48.796;9.480;2022-09-16T09:54:48;3.97;;;3.60;;
1346;SDS011;667;48.796;9.480;2022-09-16T10:00:31;4.53;;;4.07;;
1346;SDS011;667;48.796;9.480;2022-09-16T10:05:52;5.13;;;4.37;;
1346;SDS011;667;48.796;9.480;2022-09-16T10:11:27;4.50;;;4.00;;
1346;SDS011;667;48.796;9.480;2022-09-16T10:13:58;4.17;;;3.87;;
1346;SDS011;667;48.796;9.480;2022-09-16T10:16:31;6.33;;;4.57;;
1346;SDS011;667;48.796;9.480;2022-09-16T10:21:36;4.67;;;4.27;;
1346;SDS011;667;48.796;9.480;2022-09-16T10:24:23;6.13;;;4.90;;
1346;SDS011;667;48.796;9.480;2022-09-16T10:27:00;5.93;;;5.43;;
1346;SDS011;667;48.796;9.480;2022-09-16T10:29:41;5.00;;;4.50;;
1346;SDS011;667;48.796;9.480;2022-09-16T10:32:07;5.37;;;4.87;;
1346;SDS011;667;48.796;9.480;2022-09-16T10:34:39;6.97;;;5.10;;
1346;SDS011;667;48.796;9.480;2022-09-16T10:39:38;6.07;;;4.93;;
1346;SDS011;667;48.796;9.480;2022-09-16T10:42:20;5.10;;;4.70;;
1346;SDS011;667;48.796;9.480;2022-09-16T10:44:48;5.10;;;4.30;;
1346;SDS011;667;48.796;9.480;2022-09-16T10:47:21;6.30;;;4.40;;
1346;SDS011;667;48.796;9.480;2022-09-16T10:49:59;6.60;;;4.73;;
1346;SDS011;667;48.796;9.480;2022-09-16T10:52:42;8.50;;;5.07;;
1346;SDS011;667;48.796;9.480;2022-09-16T10:57:47;4.80;;;4.30;;
1346;SDS011;667;48.796;9.480;2022-09-16T11:00:14;5.30;;;4.80;;
1346;SDS011;667;48.796;9.480;2022-09-16T11:06:01;4.73;;;4.20;;
1346;SDS011;667;48.796;9.480;2022-09-16T11:14:11;7.87;;;5.13;;
1346;SDS011;667;48.796;9.480;2022-09-16T11:36:18;5.10;;;4.57;;
1346;SDS011;667;48.796;9.480;2022-09-16T11:50:01;5.20;;;4.70;;
1346;SDS011;667;48.796;9.480;2022-09-16T12:00:44;4.50;;;4.03;;
1346;SDS011;667;48.796;9.480;2022-09-16T12:05:56;5.63;;;4.23;;
1346;SDS011;667;48.796;9.480;2022-09-16T12:08:31;4.40;;;3.70;;
1346;SDS011;667;48.796;9.480;2022-09-16T12:11:20;5.10;;;4.23;;
1346;SDS011;667;48.796;9.480;2022-09-16T12:14:21;3.83;;;3.50;;
1346;SDS011;667;48.796;9.480;2022-09-16T12:22:35;4.30;;;3.97;;
1346;SDS011;667;48.796;9.480;2022-09-16T12:25:14;4.07;;;3.60;;
1346;SDS011;667;48.796;9.480;2022-09-16T12:30:52;5.37;;;4.07;;
1346;SDS011;667;48.796;9.480;2022-09-16T12:33:26;3.90;;;3.57;;
1346;SDS011;667;48.796;9.480;2022-09-16T12:36:10;4.47;;;3.13;;
1346;SDS011;667;48.796;9.480;2022-09-16T12:38:40;4.50;;;3.30;;
1346;SDS011;667;48.796;9.480;2022-09-16T13:03:40;4.23;;;2.40;;
1346;SDS011;667;48.796;9.480;2022-09-16T13:06:22;2.93;;;2.23;;
1346;SDS011;667;48.796;9.480;2022-09-16T13:08:50;3.33;;;2.60;;
1346;SDS011;667;48.796;9.480;2022-09-16T13:11:24;2.50;;;2.30;;
1346;SDS011;667;48.796;9.480;2022-09-16T13:13:53;3.93;;;2.60;;
1346;SDS011;667;48.796;9.480;2022-09-16T13:16:28;2.57;;;2.37;;
1346;SDS011;667;48.796;9.480;2022-09-16T13:22:02;2.20;;;2.00;;
1346;SDS011;667;48.796;9.480;2022-09-16T13:24:38;3.23;;;2.30;;
1346;SDS011;667;48.796;9.480;2022-09-16T13:27:27;4.87;;;2.57;;
1346;SDS011;667;48.796;9.480;2022-09-16T13:35:03;4.17;;;2.33;;
1346;SDS011;667;48.796;9.480;2022-09-16T13:37:50;2.90;;;2.43;;
1346;SDS011;667;48.796;9.480;2022-09-16T13:40:29;2.60;;;2.10;;
1346;SDS011;667;48.796;9.480;2022-09-16T13:45:36;3.30;;;2.10;;
1346;SDS011;667;48.796;9.480;2022-09-16T13:48:08;2.73;;;2.30;;
1346;SDS011;667;48.796;9.480;2022-09-16T13:50:34;2.70;;;2.30;;
1346;SDS011;667;48.796;9.480;2022-09-16T13:53:08;3.00;;;2.30;;
1346;SDS011;667;48.796;9.480;2022-09-16T13:55:35;2.37;;;2.10;;
1346;SDS011;667;48.796;9.480;2022-09-16T13:58:16;2.43;;;2.23;;
1346;SDS011;667;48.796;9.480;2022-09-16T14:08:53;2.43;;;1.83;;
1346;SDS011;667;48.796;9.480;2022-09-16T14:14:44;4.37;;;2.30;;
1346;SDS011;667;48.796;9.480;2022-09-16T14:17:24;4.60;;;2.53;;
1346;SDS011;667;48.796;9.480;2022-09-16T14:19:55;3.20;;;2.40;;
1346;SDS011;667;48.796;9.480;2022-09-16T14:22:23;4.30;;;2.53;;
1346;SDS011;667;48.796;9.480;2022-09-16T14:24:51;2.70;;;2.50;;
1346;SDS011;667;48.796;9.480;2022-09-16T14:29:55;2.43;;;2.23;;
1346;SDS011;667;48.796;9.480;2022-09-16T14:32:26;2.93;;;2.50;;
1346;SDS011;667;48.796;9.480;2022-09-16T14:34:54;3.07;;;2.40;;
1346;SDS011;667;48.796;9.480;2022-09-16T14:37:23;5.10;;;2.90;;
1346;SDS011;667;48.796;9.480;2022-09-16T14:39:51;4.07;;;2.80;;
1346;SDS011;667;48.796;9.480;2022-09-16T14:42:19;3.17;;;2.50;;
1346;SDS011;667;48.796;9.480;2022-09-16T14:44:53;3.03;;;2.50;;
1346;SDS011;667;48.796;9.480;2022-09-16T14:49:56;2.60;;;2.40;;
1346;SDS011;667;48.796;9.480;2022-09-16T14:52:32;3.23;;;2.50;;
1346;SDS011;667;48.796;9.480;2022-09-16T14:54:59;3.80;;;2.40;;
1346;SDS011;667;48.796;9.480;2022-09-16T14:57:28;3.50;;;3.20;;
1346;SDS011;667;48.796;9.480;2022-09-16T14:59:55;2.60;;;2.20;;
1346;SDS011;667;48.796;9.480;2022-09-16T15:02:28;2.87;;;2.60;;
1346;SDS011;667;48.796;9.480;2022-09-16T15:05:07;4.00;;;2.40;;
1346;SDS011;667;48.796;9.480;2022-09-16T15:07:50;3.20;;;2.90;;
1346;SDS011;667;48.796;9.480;2022-09-16T15:10:22;2.57;;;2.37;;
1346;SDS011;667;48.796;9.480;2022-09-16T15:12:51;7.30;;;3.00;;
1346;SDS011;667;48.796;9.480;2022-09-16T15:15:25;2.43;;;2.23;;
1346;SDS011;667;48.796;9.480;2022-09-16T15:18:00;3.53;;;2.50;;
1346;SDS011;667;48.796;9.480;2022-09-16T15:20:32;4.00;;;2.60;;
1346;SDS011;667;48.796;9.480;2022-09-16T15:23:03;4.27;;;2.30;;
1346;SDS011;667;48.796;9.480;2022-09-16T15:25:31;2.83;;;2.60;;
1346;SDS011;667;48.796;9.480;2022-09-16T15:28:05;3.00;;;2.57;;
1346;SDS011;667;48.796;9.480;2022-09-16T15:30:32;2.53;;;2.33;;
1346;SDS011;667;48.796;9.480;2022-09-16T15:32:59;3.37;;;2.60;;
1346;SDS011;667;48.796;9.480;2022-09-16T15:35:25;3.03;;;2.50;;
1346;SDS011;667;48.796;9.480;2022-09-16T15:37:53;2.30;;;2.00;;
1346;SDS011;667;48.796;9.480;2022-09-16T15:42:48;4.47;;;2.53;;
1346;SDS011;667;48.796;9.480;2022-09-16T15:45:33;3.90;;;2.10;;
1346;SDS011;667;48.796;9.480;2022-09-16T15:48:00;2.90;;;2.10;;
1346;SDS011;667;48.796;9.480;2022-09-16T15:50:35;5.70;;;2.27;;
1346;SDS011;667;48.796;9.480;2022-09-16T15:53:17;2.10;;;1.90;;
1346;SDS011;667;48.796;9.480;2022-09-16T15:55:58;5.20;;;2.70;;
1346;SDS011;667;48.796;9.480;2022-09-16T16:03:36;1.97;;;1.87;;
1346;SDS011;667;48.796;9.480;2022-09-16T16:06:10;2.80;;;2.50;;
1346;SDS011;667;48.796;9.480;2022-09-16T16:08:38;4.87;;;3.10;;
1346;SDS011;667;48.796;9.480;2022-09-16T16:11:09;3.60;;;2.30;;
1346;SDS011;667;48.796;9.480;2022-09-16T16:13:39;2.40;;;2.20;;
1346;SDS011;667;48.796;9.480;2022-09-16T16:16:05;4.73;;;2.80;;
1346;SDS011;667;48.796;9.480;2022-09-16T16:18:32;3.90;;;3.20;;
1346;SDS011;667;48.796;9.480;2022-09-16T16:20:59;2.97;;;2.53;;
1346;SDS011;667;48.796;9.480;2022-09-16T16:23:35;2.70;;;2.50;;
1346;SDS011;667;48.796;9.480;2022-09-16T16:26:05;3.23;;;2.70;;
1346;SDS011;667;48.796;9.480;2022-09-16T16:28:32;2.77;;;2.30;;
1346;SDS011;667;48.796;9.480;2022-09-16T16:31:08;2.63;;;2.43;;
1346;SDS011;667;48.796;9.480;2022-09-16T16:33:42;3.30;;;2.43;;
1346;SDS011;667;48.796;9.480;2022-09-16T16:36:12;2.60;;;2.40;;
1346;SDS011;667;48.796;9.480;2022-09-16T16:38:39;2.83;;;2.53;;
1346;SDS011;667;48.796;9.480;2022-09-16T16:41:05;6.67;;;4.17;;
1346;SDS011;667;48.796;9.480;2022-09-16T16:43:32;3.80;;;2.67;;
1346;SDS011;667;48.796;9.480;2022-09-16T16:45:58;2.20;;;2.00;;
1346;SDS011;667;48.796;9.480;2022-09-16T16:48:25;3.43;;;3.00;;
1346;SDS011;667;48.796;9.480;2022-09-16T16:50:58;2.47;;;2.27;;
1346;SDS011;667;48.796;9.480;2022-09-16T16:53:28;2.83;;;1.80;;
1346;SDS011;667;48.796;9.480;2022-09-16T16:56:04;3.27;;;2.00;;
1346;SDS011;667;48.796;9.480;2022-09-16T16:58:35;4.93;;;2.20;;
1346;SDS011;667;48.796;9.480;2022-09-16T17:01:14;3.60;;;2.20;;
1346;SDS011;667;48.796;9.480;2022-09-16T17:03:42;2.40;;;2.17;;
1346;SDS011;667;48.796;9.480;2022-09-16T17:06:10;3.53;;;2.67;;
1346;SDS011;667;48.796;9.480;2022-09-16T17:08:36;1.83;;;1.73;;
1346;SDS011;667;48.796;9.480;2022-09-16T17:13:30;1.97;;;1.87;;
1346;SDS011;667;48.796;9.480;2022-09-16T17:15:55;2.33;;;2.13;;
1346;SDS011;667;48.796;9.480;2022-09-16T17:18:21;3.27;;;1.87;;
1346;SDS011;667;48.796;9.480;2022-09-16T17:20:47;2.30;;;2.00;;
1346;SDS011;667;48.796;9.480;2022-09-16T17:23:12;2.63;;;2.23;;
1346;SDS011;667;48.796;9.480;2022-09-16T17:25:38;4.50;;;2.27;;
1346;SDS011;667;48.796;9.480;2022-09-16T17:28:03;3.10;;;2.20;;
1346;SDS011;667;48.796;9.480;2022-09-16T17:30:29;1.87;;;1.77;;
1346;SDS011;667;48.796;9.480;2022-09-16T17:32:54;4.37;;;2.87;;
1346;SDS011;667;48.796;9.480;2022-09-16T17:35:20;1.77;;;1.50;;
1346;SDS011;667;48.796;9.480;2022-09-16T17:37:45;3.83;;;1.80;;
1346;SDS011;667;48.796;9.480;2022-09-16T17:40:11;2.63;;;1.60;;
1346;SDS011;667;48.796;9.480;2022-09-16T17:42:36;1.73;;;1.47;;
1346;SDS011;667;48.796;9.480;2022-09-16T17:45:02;3.10;;;1.60;;
1346;SDS011;667;48.796;9.480;2022-09-16T17:47:30;2.30;;;2.10;;
1346;SDS011;667;48.796;9.480;2022-09-16T17:49:57;3.20;;;2.03;;
1346;SDS011;667;48.796;9.480;2022-09-16T17:52:27;1.97;;;1.53;;
1346;SDS011;667;48.796;9.480;2022-09-16T17:54:54;2.40;;;1.80;;
1346;SDS011;667;48.796;9.480;2022-09-16T17:57:19;1.70;;;1.47;;
1346;SDS011;667;48.796;9.480;2022-09-16T17:59:46;1.37;;;1.20;;
1346;SDS011;667;48.796;9.480;2022-09-16T18:02:12;1.67;;;1.57;;
1346;SDS011;667;48.796;9.480;2022-09-16T18:04:39;2.10;;;1.40;;
1346;SDS011;667;48.796;9.480;2022-09-16T18:07:05;1.50;;;1.40;;
1346;SDS011;667;48.796;9.480;2022-09-16T18:09:31;2.90;;;1.40;;
1346;SDS011;667;48.796;9.480;2022-09-16T18:11:56;1.60;;;1.50;;
1346;SDS011;667;48.796;9.480;2022-09-16T18:14:22;2.73;;;1.30;;
1346;SDS011;667;48.796;9.480;2022-09-16T18:16:48;1.67;;;1.57;;
1346;SDS011;667;48.796;9.480;2022-09-16T18:19:13;1.50;;;1.40;;
1346;SDS011;667;48.796;9.480;2022-09-16T18:21:39;1.33;;;1.10;;
1346;SDS011;667;48.796;9.480;2022-09-16T18:24:05;3.43;;;1.43;;
1346;SDS011;667;48.796;9.480;2022-09-16T18:26:35;1.60;;;1.50;;
1346;SDS011;667;48.796;9.480;2022-09-16T18:29:01;3.37;;;2.10;;
1346;SDS011;667;48.796;9.480;2022-09-16T18:31:27;2.10;;;1.70;;
1346;SDS011;667;48.796;9.480;2022-09-16T18:33:53;2.10;;;1.73;;
1346;SDS011;667;48.796;9.480;2022-09-16T18:36:19;2.80;;;1.30;;
1346;SDS011;667;48.796;9.480;2022-09-16T18:38:49;2.73;;;1.20;;
1346;SDS011;667;48.796;9.480;2022-09-16T18:41:21;1.73;;;1.40;;
1346;SDS011;667;48.796;9.480;2022-09-16T18:43:52;4.80;;;3.57;;
1346;SDS011;667;48.796;9.480;2022-09-16T18:46:24;5.23;;;4.53;;
1346;SDS011;667;48.796;9.480;2022-09-16T18:48:51;3.70;;;2.93;;
1346;SDS011;667;48.796;9.480;2022-09-16T18:51:19;2.80;;;2.60;;
1346;SDS011;667;48.796;9.480;2022-09-16T18:53:45;3.40;;;3.10;;
1346;SDS011;667;48.796;9.480;2022-09-16T18:56:12;2.13;;;1.90;;
1346;SDS011;667;48.796;9.480;2022-09-16T18:58:40;3.03;;;1.60;;
1346;SDS011;667;48.796;9.480;2022-09-16T19:01:17;3.10;;;1.60;;
1346;SDS011;667;48.796;9.480;2022-09-16T19:03:43;4.43;;;1.83;;
1346;SDS011;667;48.796;9.480;2022-09-16T19:06:08;2.83;;;2.60;;
1346;SDS011;667;48.796;9.480;2022-09-16T19:08:34;8.83;;;5.87;;
1346;SDS011;667;48.796;9.480;2022-09-16T19:11:00;5.30;;;3.27;;
1346;SDS011;667;48.796;9.480;2022-09-16T19:13:27;3.80;;;3.30;;
1346;SDS011;667;48.796;9.480;2022-09-16T19:15:56;4.50;;;3.73;;
1346;SDS011;667;48.796;9.480;2022-09-16T19:18:22;9.00;;;7.33;;
1346;SDS011;667;48.796;9.480;2022-09-16T19:20:48;5.80;;;5.20;;
1346;SDS011;667;48.796;9.480;2022-09-16T19:23:13;3.37;;;3.03;;
1346;SDS011;667;48.796;9.480;2022-09-16T19:25:39;3.57;;;3.27;;
1346;SDS011;667;48.796;9.480;2022-09-16T19:28:05;5.70;;;2.90;;
1346;SDS011;667;48.796;9.480;2022-09-16T19:30:31;4.53;;;3.20;;
1346;SDS011;667;48.796;9.480;2022-09-16T19:32:57;2.60;;;2.40;;
1346;SDS011;667;48.796;9.480;2022-09-16T19:35:22;3.40;;;2.30;;
1346;SDS011;667;48.796;9.480;2022-09-16T19:37:48;5.00;;;3.40;;
1346;SDS011;667;48.796;9.480;2022-09-16T19:40:15;3.10;;;2.80;;
1346;SDS011;667;48.796;9.480;2022-09-16T19:42:41;4.10;;;2.90;;